Terminal Aerodrome Forecast
Issued by NWS

Home | Current Version | Previous Version | Text Only | Print | Product List | Glossary On
Versions: 1 2 3 4 5 6 7 8 9 10
535
FTAK31 PAJN 231729
TAFAKT
TAF
PAKT 231729Z 2318/2418 13010KT P6SM BKN070
     FM232000 15010KT P6SM VCSH SCT050 BKN070 OVC100
     FM241000 15006KT P6SM VCSH BKN030 OVC040
      AMD LTD TO CLD VIS AND WIND 2406/2415=

USA.gov is the U.S. government's official web portal to all federal, state and local government web resources and services.